sensor_id;sensor_type;location;lat;lon;timestamp;P1;durP1;ratioP1;P2;durP2;ratioP2
16135;SDS011;8173;48.354;9.248;2022-08-24T00:00:04;2.65;;;1.42;;
16135;SDS011;8173;48.354;9.248;2022-08-24T00:02:34;1.83;;;1.35;;
16135;SDS011;8173;48.354;9.248;2022-08-24T00:05:00;1.70;;;1.60;;
16135;SDS011;8173;48.354;9.248;2022-08-24T00:07:27;1.50;;;1.40;;
16135;SDS011;8173;48.354;9.248;2022-08-24T00:09:54;2.03;;;1.83;;
16135;SDS011;8173;48.354;9.248;2022-08-24T00:12:21;2.63;;;1.52;;
16135;SDS011;8173;48.354;9.248;2022-08-24T00:14:48;1.40;;;1.30;;
16135;SDS011;8173;48.354;9.248;2022-08-24T00:17:16;1.65;;;1.50;;
16135;SDS011;8173;48.354;9.248;2022-08-24T00:19:44;1.67;;;1.58;;
16135;SDS011;8173;48.354;9.248;2022-08-24T00:22:11;1.60;;;1.50;;
16135;SDS011;8173;48.354;9.248;2022-08-24T00:24:38;1.60;;;1.50;;
16135;SDS011;8173;48.354;9.248;2022-08-24T00:27:05;1.65;;;1.55;;
16135;SDS011;8173;48.354;9.248;2022-08-24T00:29:33;1.50;;;1.40;;
16135;SDS011;8173;48.354;9.248;2022-08-24T00:32:00;1.60;;;1.50;;
16135;SDS011;8173;48.354;9.248;2022-08-24T00:34:28;1.60;;;1.50;;
16135;SDS011;8173;48.354;9.248;2022-08-24T00:36:56;1.50;;;1.40;;
16135;SDS011;8173;48.354;9.248;2022-08-24T00:39:23;1.50;;;1.40;;
16135;SDS011;8173;48.354;9.248;2022-08-24T00:41:50;1.90;;;1.60;;
16135;SDS011;8173;48.354;9.248;2022-08-24T00:44:18;2.40;;;1.75;;
16135;SDS011;8173;48.354;9.248;2022-08-24T00:46:47;1.40;;;1.30;;
16135;SDS011;8173;48.354;9.248;2022-08-24T00:49:20;1.60;;;1.50;;
16135;SDS011;8173;48.354;9.248;2022-08-24T00:51:55;1.60;;;1.50;;
16135;SDS011;8173;48.354;9.248;2022-08-24T00:54:28;1.77;;;1.60;;
16135;SDS011;8173;48.354;9.248;2022-08-24T00:56:58;1.90;;;1.60;;
16135;SDS011;8173;48.354;9.248;2022-08-24T00:59:31;1.70;;;1.60;;
16135;SDS011;8173;48.354;9.248;2022-08-24T01:02:04;1.60;;;1.50;;
16135;SDS011;8173;48.354;9.248;2022-08-24T01:04:36;1.73;;;1.63;;
16135;SDS011;8173;48.354;9.248;2022-08-24T01:07:07;1.50;;;1.40;;
16135;SDS011;8173;48.354;9.248;2022-08-24T01:09:34;1.60;;;1.50;;
16135;SDS011;8173;48.354;9.248;2022-08-24T01:12:01;1.60;;;1.50;;
16135;SDS011;8173;48.354;9.248;2022-08-24T01:14:28;1.52;;;1.42;;
16135;SDS011;8173;48.354;9.248;2022-08-24T01:16:55;2.00;;;1.70;;
16135;SDS011;8173;48.354;9.248;2022-08-24T01:19:42;1.50;;;1.40;;
16135;SDS011;8173;48.354;9.248;2022-08-24T01:22:18;1.60;;;1.50;;
16135;SDS011;8173;48.354;9.248;2022-08-24T01:24:56;1.60;;;1.50;;
16135;SDS011;8173;48.354;9.248;2022-08-24T01:27:22;1.70;;;1.60;;
16135;SDS011;8173;48.354;9.248;2022-08-24T01:29:49;1.70;;;1.60;;
16135;SDS011;8173;48.354;9.248;2022-08-24T01:32:18;1.77;;;1.67;;
16135;SDS011;8173;48.354;9.248;2022-08-24T01:34:47;1.70;;;1.60;;
16135;SDS011;8173;48.354;9.248;2022-08-24T01:37:15;2.20;;;2.00;;
16135;SDS011;8173;48.354;9.248;2022-08-24T01:39:42;1.77;;;1.67;;
16135;SDS011;8173;48.354;9.248;2022-08-24T01:42:12;1.60;;;1.50;;
16135;SDS011;8173;48.354;9.248;2022-08-24T01:44:40;1.55;;;1.40;;
16135;SDS011;8173;48.354;9.248;2022-08-24T01:47:09;1.60;;;1.50;;
16135;SDS011;8173;48.354;9.248;2022-08-24T01:49:38;1.50;;;1.40;;
16135;SDS011;8173;48.354;9.248;2022-08-24T01:52:08;1.60;;;1.50;;
16135;SDS011;8173;48.354;9.248;2022-08-24T01:54:38;1.52;;;1.42;;
16135;SDS011;8173;48.354;9.248;2022-08-24T01:57:06;1.70;;;1.60;;
16135;SDS011;8173;48.354;9.248;2022-08-24T01:59:34;1.50;;;1.40;;
16135;SDS011;8173;48.354;9.248;2022-08-24T02:02:03;1.52;;;1.42;;
16135;SDS011;8173;48.354;9.248;2022-08-24T02:04:33;1.42;;;1.33;;
16135;SDS011;8173;48.354;9.248;2022-08-24T02:07:01;1.55;;;1.42;;
16135;SDS011;8173;48.354;9.248;2022-08-24T02:09:28;1.70;;;1.60;;
16135;SDS011;8173;48.354;9.248;2022-08-24T02:11:54;1.70;;;1.60;;
16135;SDS011;8173;48.354;9.248;2022-08-24T02:14:21;1.63;;;1.52;;
16135;SDS011;8173;48.354;9.248;2022-08-24T02:16:49;1.50;;;1.40;;
16135;SDS011;8173;48.354;9.248;2022-08-24T02:19:16;1.73;;;1.60;;
16135;SDS011;8173;48.354;9.248;2022-08-24T02:21:43;1.67;;;1.58;;
16135;SDS011;8173;48.354;9.248;2022-08-24T02:24:10;1.80;;;1.70;;
16135;SDS011;8173;48.354;9.248;2022-08-24T02:26:37;1.50;;;1.40;;
16135;SDS011;8173;48.354;9.248;2022-08-24T02:29:04;1.60;;;1.50;;
16135;SDS011;8173;48.354;9.248;2022-08-24T02:31:32;1.55;;;1.45;;
16135;SDS011;8173;48.354;9.248;2022-08-24T02:34:02;1.70;;;1.60;;
16135;SDS011;8173;48.354;9.248;2022-08-24T02:36:29;1.60;;;1.50;;
16135;SDS011;8173;48.354;9.248;2022-08-24T02:38:56;1.30;;;1.20;;
16135;SDS011;8173;48.354;9.248;2022-08-24T02:41:23;1.95;;;1.60;;
16135;SDS011;8173;48.354;9.248;2022-08-24T02:43:51;1.60;;;1.50;;
16135;SDS011;8173;48.354;9.248;2022-08-24T02:46:19;1.50;;;1.40;;
16135;SDS011;8173;48.354;9.248;2022-08-24T02:48:47;1.52;;;1.42;;
16135;SDS011;8173;48.354;9.248;2022-08-24T02:51:19;1.52;;;1.42;;
16135;SDS011;8173;48.354;9.248;2022-08-24T02:53:46;1.27;;;1.23;;
16135;SDS011;8173;48.354;9.248;2022-08-24T02:56:13;1.50;;;1.40;;
16135;SDS011;8173;48.354;9.248;2022-08-24T02:58:41;1.70;;;1.60;;
16135;SDS011;8173;48.354;9.248;2022-08-24T03:01:08;1.60;;;1.50;;
16135;SDS011;8173;48.354;9.248;2022-08-24T03:03:35;1.60;;;1.50;;
16135;SDS011;8173;48.354;9.248;2022-08-24T03:06:03;1.67;;;1.55;;
16135;SDS011;8173;48.354;9.248;2022-08-24T03:08:31;1.67;;;1.58;;
16135;SDS011;8173;48.354;9.248;2022-08-24T03:10:59;1.40;;;1.30;;
16135;SDS011;8173;48.354;9.248;2022-08-24T03:13:26;1.65;;;1.55;;
16135;SDS011;8173;48.354;9.248;2022-08-24T03:15:54;1.60;;;1.50;;
16135;SDS011;8173;48.354;9.248;2022-08-24T03:18:22;1.50;;;1.40;;
16135;SDS011;8173;48.354;9.248;2022-08-24T03:20:49;1.60;;;1.50;;
16135;SDS011;8173;48.354;9.248;2022-08-24T03:23:16;1.40;;;1.30;;
16135;SDS011;8173;48.354;9.248;2022-08-24T03:25:45;1.48;;;1.38;;
16135;SDS011;8173;48.354;9.248;2022-08-24T03:28:12;1.50;;;1.40;;
16135;SDS011;8173;48.354;9.248;2022-08-24T03:30:39;1.63;;;1.52;;
16135;SDS011;8173;48.354;9.248;2022-08-24T03:33:06;1.70;;;1.60;;
16135;SDS011;8173;48.354;9.248;2022-08-24T03:35:33;1.67;;;1.58;;
16135;SDS011;8173;48.354;9.248;2022-08-24T03:38:00;1.90;;;1.80;;
16135;SDS011;8173;48.354;9.248;2022-08-24T03:40:27;1.80;;;1.70;;
16135;SDS011;8173;48.354;9.248;2022-08-24T03:42:55;1.60;;;1.50;;
16135;SDS011;8173;48.354;9.248;2022-08-24T03:45:21;2.85;;;1.42;;
16135;SDS011;8173;48.354;9.248;2022-08-24T03:47:48;1.67;;;1.58;;
16135;SDS011;8173;48.354;9.248;2022-08-24T03:50:16;1.95;;;1.85;;
16135;SDS011;8173;48.354;9.248;2022-08-24T03:52:43;2.22;;;1.63;;
16135;SDS011;8173;48.354;9.248;2022-08-24T03:55:10;1.60;;;1.50;;
16135;SDS011;8173;48.354;9.248;2022-08-24T03:57:38;1.70;;;1.60;;
16135;SDS011;8173;48.354;9.248;2022-08-24T04:00:08;1.60;;;1.50;;
16135;SDS011;8173;48.354;9.248;2022-08-24T04:02:37;1.60;;;1.50;;
16135;SDS011;8173;48.354;9.248;2022-08-24T04:05:05;1.70;;;1.60;;
16135;SDS011;8173;48.354;9.248;2022-08-24T04:07:32;1.70;;;1.60;;
16135;SDS011;8173;48.354;9.248;2022-08-24T04:09:59;1.50;;;1.40;;
16135;SDS011;8173;48.354;9.248;2022-08-24T04:12:26;1.58;;;1.48;;
16135;SDS011;8173;48.354;9.248;2022-08-24T04:14:53;1.40;;;1.30;;
16135;SDS011;8173;48.354;9.248;2022-08-24T04:17:22;1.40;;;1.30;;
16135;SDS011;8173;48.354;9.248;2022-08-24T04:19:49;1.40;;;1.30;;
16135;SDS011;8173;48.354;9.248;2022-08-24T04:22:25;1.80;;;1.60;;
16135;SDS011;8173;48.354;9.248;2022-08-24T04:24:53;1.65;;;1.55;;
16135;SDS011;8173;48.354;9.248;2022-08-24T04:27:21;1.45;;;1.35;;
16135;SDS011;8173;48.354;9.248;2022-08-24T04:29:48;1.73;;;1.63;;
16135;SDS011;8173;48.354;9.248;2022-08-24T04:32:15;1.80;;;1.58;;
16135;SDS011;8173;48.354;9.248;2022-08-24T04:34:43;1.30;;;1.20;;
16135;SDS011;8173;48.354;9.248;2022-08-24T04:37:11;1.70;;;1.60;;
16135;SDS011;8173;48.354;9.248;2022-08-24T04:39:38;1.60;;;1.50;;
16135;SDS011;8173;48.354;9.248;2022-08-24T04:42:06;1.60;;;1.50;;
16135;SDS011;8173;48.354;9.248;2022-08-24T04:44:33;1.60;;;1.50;;
16135;SDS011;8173;48.354;9.248;2022-08-24T04:46:59;1.60;;;1.50;;
16135;SDS011;8173;48.354;9.248;2022-08-24T04:49:26;1.75;;;1.65;;
16135;SDS011;8173;48.354;9.248;2022-08-24T04:51:55;1.60;;;1.50;;
16135;SDS011;8173;48.354;9.248;2022-08-24T04:54:22;1.65;;;1.55;;
16135;SDS011;8173;48.354;9.248;2022-08-24T04:56:49;1.65;;;1.55;;
16135;SDS011;8173;48.354;9.248;2022-08-24T04:59:16;1.70;;;1.60;;
16135;SDS011;8173;48.354;9.248;2022-08-24T05:01:43;1.48;;;1.38;;
16135;SDS011;8173;48.354;9.248;2022-08-24T05:04:10;1.67;;;1.58;;
16135;SDS011;8173;48.354;9.248;2022-08-24T05:06:39;1.40;;;1.30;;
16135;SDS011;8173;48.354;9.248;2022-08-24T05:09:08;1.55;;;1.45;;
16135;SDS011;8173;48.354;9.248;2022-08-24T05:11:35;1.40;;;1.30;;
16135;SDS011;8173;48.354;9.248;2022-08-24T05:14:04;1.42;;;1.20;;
16135;SDS011;8173;48.354;9.248;2022-08-24T05:16:31;1.30;;;1.15;;
16135;SDS011;8173;48.354;9.248;2022-08-24T05:19:01;1.30;;;1.20;;
16135;SDS011;8173;48.354;9.248;2022-08-24T05:21:29;1.35;;;1.25;;
16135;SDS011;8173;48.354;9.248;2022-08-24T05:23:56;1.30;;;1.20;;
16135;SDS011;8173;48.354;9.248;2022-08-24T05:26:25;1.13;;;1.02;;
16135;SDS011;8173;48.354;9.248;2022-08-24T05:28:53;0.88;;;0.88;;
16135;SDS011;8173;48.354;9.248;2022-08-24T05:31:21;1.33;;;1.10;;
16135;SDS011;8173;48.354;9.248;2022-08-24T05:33:50;1.20;;;1.10;;
16135;SDS011;8173;48.354;9.248;2022-08-24T05:36:18;1.17;;;1.08;;
16135;SDS011;8173;48.354;9.248;2022-08-24T05:38:47;3.97;;;1.50;;
16135;SDS011;8173;48.354;9.248;2022-08-24T05:41:16;1.02;;;0.93;;
16135;SDS011;8173;48.354;9.248;2022-08-24T05:43:44;1.20;;;1.10;;
16135;SDS011;8173;48.354;9.248;2022-08-24T05:46:12;1.75;;;1.10;;
16135;SDS011;8173;48.354;9.248;2022-08-24T05:48:39;1.40;;;1.30;;
16135;SDS011;8173;48.354;9.248;2022-08-24T05:51:07;1.25;;;1.10;;
16135;SDS011;8173;48.354;9.248;2022-08-24T05:53:35;1.65;;;1.20;;
16135;SDS011;8173;48.354;9.248;2022-08-24T05:56:03;1.40;;;1.13;;
16135;SDS011;8173;48.354;9.248;2022-08-24T05:58:31;1.10;;;1.00;;
16135;SDS011;8173;48.354;9.248;2022-08-24T06:01:03;1.23;;;1.13;;
16135;SDS011;8173;48.354;9.248;2022-08-24T06:03:31;1.90;;;1.30;;
16135;SDS011;8173;48.354;9.248;2022-08-24T06:05:58;1.33;;;1.20;;
16135;SDS011;8173;48.354;9.248;2022-08-24T06:08:26;1.35;;;1.10;;
16135;SDS011;8173;48.354;9.248;2022-08-24T06:10:54;2.47;;;1.10;;
16135;SDS011;8173;48.354;9.248;2022-08-24T06:13:20;1.40;;;1.30;;
16135;SDS011;8173;48.354;9.248;2022-08-24T06:15:48;1.20;;;1.10;;
16135;SDS011;8173;48.354;9.248;2022-08-24T06:18:16;1.13;;;1.02;;
16135;SDS011;8173;48.354;9.248;2022-08-24T06:20:42;1.40;;;1.20;;
16135;SDS011;8173;48.354;9.248;2022-08-24T06:23:09;1.30;;;1.17;;
16135;SDS011;8173;48.354;9.248;2022-08-24T06:25:37;0.80;;;0.80;;
16135;SDS011;8173;48.354;9.248;2022-08-24T06:28:22;1.10;;;1.00;;
16135;SDS011;8173;48.354;9.248;2022-08-24T06:30:49;1.20;;;1.10;;
16135;SDS011;8173;48.354;9.248;2022-08-24T06:33:26;1.55;;;1.10;;
16135;SDS011;8173;48.354;9.248;2022-08-24T06:35:53;1.20;;;1.10;;
16135;SDS011;8173;48.354;9.248;2022-08-24T06:38:20;1.20;;;1.10;;
16135;SDS011;8173;48.354;9.248;2022-08-24T06:40:47;1.50;;;1.10;;
16135;SDS011;8173;48.354;9.248;2022-08-24T06:43:13;2.67;;;1.05;;
16135;SDS011;8173;48.354;9.248;2022-08-24T06:45:40;1.05;;;0.95;;
16135;SDS011;8173;48.354;9.248;2022-08-24T06:48:07;1.15;;;1.05;;
16135;SDS011;8173;48.354;9.248;2022-08-24T06:50:35;1.02;;;0.98;;
16135;SDS011;8173;48.354;9.248;2022-08-24T06:53:03;1.05;;;0.95;;
16135;SDS011;8173;48.354;9.248;2022-08-24T06:55:30;1.00;;;0.90;;
16135;SDS011;8173;48.354;9.248;2022-08-24T06:57:57;1.10;;;1.00;;
16135;SDS011;8173;48.354;9.248;2022-08-24T07:00:24;1.52;;;1.00;;
16135;SDS011;8173;48.354;9.248;2022-08-24T07:02:51;1.27;;;1.08;;
16135;SDS011;8173;48.354;9.248;2022-08-24T07:05:18;0.90;;;0.90;;
16135;SDS011;8173;48.354;9.248;2022-08-24T07:07:46;1.20;;;1.10;;
16135;SDS011;8173;48.354;9.248;2022-08-24T07:10:13;1.63;;;1.20;;
16135;SDS011;8173;48.354;9.248;2022-08-24T07:12:40;1.20;;;1.10;;
16135;SDS011;8173;48.354;9.248;2022-08-24T07:15:06;1.30;;;1.17;;
16135;SDS011;8173;48.354;9.248;2022-08-24T07:17:34;2.05;;;1.10;;
16135;SDS011;8173;48.354;9.248;2022-08-24T07:20:01;1.20;;;1.10;;
16135;SDS011;8173;48.354;9.248;2022-08-24T07:22:28;1.55;;;1.15;;
16135;SDS011;8173;48.354;9.248;2022-08-24T07:24:56;1.10;;;1.00;;
16135;SDS011;8173;48.354;9.248;2022-08-24T07:27:23;1.80;;;1.10;;
16135;SDS011;8173;48.354;9.248;2022-08-24T07:29:52;2.05;;;1.00;;
16135;SDS011;8173;48.354;9.248;2022-08-24T07:32:19;1.30;;;1.17;;
16135;SDS011;8173;48.354;9.248;2022-08-24T07:34:46;1.42;;;1.27;;
16135;SDS011;8173;48.354;9.248;2022-08-24T07:37:13;1.10;;;1.00;;
16135;SDS011;8173;48.354;9.248;2022-08-24T07:39:40;1.35;;;1.10;;
16135;SDS011;8173;48.354;9.248;2022-08-24T07:42:08;1.35;;;1.10;;
16135;SDS011;8173;48.354;9.248;2022-08-24T07:44:35;1.17;;;1.02;;
16135;SDS011;8173;48.354;9.248;2022-08-24T07:47:03;1.20;;;1.10;;
16135;SDS011;8173;48.354;9.248;2022-08-24T07:49:30;1.20;;;1.10;;
16135;SDS011;8173;48.354;9.248;2022-08-24T07:51:57;1.10;;;1.00;;
16135;SDS011;8173;48.354;9.248;2022-08-24T07:54:24;1.33;;;1.10;;
16135;SDS011;8173;48.354;9.248;2022-08-24T07:56:52;1.30;;;1.20;;
16135;SDS011;8173;48.354;9.248;2022-08-24T07:59:21;1.45;;;1.20;;
16135;SDS011;8173;48.354;9.248;2022-08-24T08:01:48;1.20;;;1.10;;
16135;SDS011;8173;48.354;9.248;2022-08-24T08:04:16;1.00;;;1.00;;
16135;SDS011;8173;48.354;9.248;2022-08-24T08:06:45;1.23;;;1.13;;
16135;SDS011;8173;48.354;9.248;2022-08-24T08:09:13;1.15;;;1.05;;
16135;SDS011;8173;48.354;9.248;2022-08-24T08:11:39;1.10;;;1.00;;
16135;SDS011;8173;48.354;9.248;2022-08-24T08:14:06;1.13;;;1.02;;
16135;SDS011;8173;48.354;9.248;2022-08-24T08:16:34;1.20;;;1.10;;
16135;SDS011;8173;48.354;9.248;2022-08-24T08:19:02;1.20;;;1.10;;
16135;SDS011;8173;48.354;9.248;2022-08-24T08:21:29;1.20;;;1.10;;
16135;SDS011;8173;48.354;9.248;2022-08-24T08:24:13;1.20;;;1.10;;
16135;SDS011;8173;48.354;9.248;2022-08-24T08:26:42;1.48;;;1.00;;
16135;SDS011;8173;48.354;9.248;2022-08-24T08:29:09;1.23;;;1.10;;
16135;SDS011;8173;48.354;9.248;2022-08-24T08:31:39;1.20;;;1.10;;
16135;SDS011;8173;48.354;9.248;2022-08-24T08:34:06;1.10;;;1.00;;
16135;SDS011;8173;48.354;9.248;2022-08-24T08:36:34;1.08;;;0.98;;
16135;SDS011;8173;48.354;9.248;2022-08-24T08:39:03;1.10;;;1.00;;
16135;SDS011;8173;48.354;9.248;2022-08-24T08:41:40;1.15;;;1.05;;
16135;SDS011;8173;48.354;9.248;2022-08-24T08:47:31;1.30;;;1.20;;
16135;SDS011;8173;48.354;9.248;2022-08-24T08:50:33;1.30;;;0.95;;
16135;SDS011;8173;48.354;9.248;2022-08-24T08:56:14;1.20;;;1.10;;
16135;SDS011;8173;48.354;9.248;2022-08-24T08:58:52;1.10;;;1.00;;
16135;SDS011;8173;48.354;9.248;2022-08-24T09:01:26;1.00;;;1.00;;
16135;SDS011;8173;48.354;9.248;2022-08-24T09:04:09;1.33;;;1.10;;
16135;SDS011;8173;48.354;9.248;2022-08-24T09:07:14;1.10;;;1.00;;
16135;SDS011;8173;48.354;9.248;2022-08-24T09:09:57;1.63;;;1.10;;
16135;SDS011;8173;48.354;9.248;2022-08-24T09:12:44;2.22;;;1.05;;
16135;SDS011;8173;48.354;9.248;2022-08-24T09:18:24;2.25;;;0.95;;
16135;SDS011;8173;48.354;9.248;2022-08-24T09:21:10;1.92;;;0.98;;
16135;SDS011;8173;48.354;9.248;2022-08-24T09:23:54;1.05;;;0.98;;
16135;SDS011;8173;48.354;9.248;2022-08-24T09:26:35;1.17;;;1.08;;
16135;SDS011;8173;48.354;9.248;2022-08-24T09:29:08;1.35;;;0.98;;
16135;SDS011;8173;48.354;9.248;2022-08-24T09:31:42;1.00;;;1.00;;
16135;SDS011;8173;48.354;9.248;2022-08-24T09:34:17;1.00;;;1.00;;
16135;SDS011;8173;48.354;9.248;2022-08-24T09:37:02;1.15;;;1.05;;
16135;SDS011;8173;48.354;9.248;2022-08-24T09:39:49;1.23;;;0.90;;
16135;SDS011;8173;48.354;9.248;2022-08-24T09:55:09;1.00;;;1.00;;
16135;SDS011;8173;48.354;9.248;2022-08-24T09:58:00;1.10;;;1.00;;
16135;SDS011;8173;48.354;9.248;2022-08-24T10:00:37;1.27;;;1.08;;
16135;SDS011;8173;48.354;9.248;2022-08-24T10:03:14;1.00;;;1.00;;
16135;SDS011;8173;48.354;9.248;2022-08-24T10:05:55;1.13;;;1.02;;
16135;SDS011;8173;48.354;9.248;2022-08-24T10:08:33;1.08;;;0.98;;
16135;SDS011;8173;48.354;9.248;2022-08-24T10:11:12;0.95;;;0.93;;
16135;SDS011;8173;48.354;9.248;2022-08-24T10:13:48;1.20;;;1.10;;
16135;SDS011;8173;48.354;9.248;2022-08-24T10:16:26;1.10;;;1.00;;
16135;SDS011;8173;48.354;9.248;2022-08-24T10:19:06;1.55;;;0.90;;
16135;SDS011;8173;48.354;9.248;2022-08-24T10:21:52;0.88;;;0.88;;
16135;SDS011;8173;48.354;9.248;2022-08-24T10:24:32;1.33;;;0.95;;
16135;SDS011;8173;48.354;9.248;2022-08-24T10:33:08;1.05;;;0.95;;
16135;SDS011;8173;48.354;9.248;2022-08-24T10:35:51;1.15;;;1.00;;
16135;SDS011;8173;48.354;9.248;2022-08-24T10:38:31;1.00;;;1.00;;
16135;SDS011;8173;48.354;9.248;2022-08-24T10:41:38;1.10;;;1.00;;
16135;SDS011;8173;48.354;9.248;2022-08-24T10:44:41;1.55;;;1.00;;
16135;SDS011;8173;48.354;9.248;2022-08-24T10:47:16;1.15;;;1.05;;
16135;SDS011;8173;48.354;9.248;2022-08-24T10:53:02;0.90;;;0.90;;
16135;SDS011;8173;48.354;9.248;2022-08-24T10:55:39;1.10;;;1.00;;
16135;SDS011;8173;48.354;9.248;2022-08-24T11:01:18;1.10;;;0.90;;
16135;SDS011;8173;48.354;9.248;2022-08-24T11:03:53;1.00;;;0.90;;
16135;SDS011;8173;48.354;9.248;2022-08-24T11:06:26;0.90;;;0.90;;
16135;SDS011;8173;48.354;9.248;2022-08-24T11:08:57;0.90;;;0.90;;
16135;SDS011;8173;48.354;9.248;2022-08-24T11:11:27;1.00;;;0.90;;
16135;SDS011;8173;48.354;9.248;2022-08-24T11:13:57;1.35;;;0.98;;
16135;SDS011;8173;48.354;9.248;2022-08-24T11:16:31;1.02;;;0.93;;
16135;SDS011;8173;48.354;9.248;2022-08-24T11:19:01;1.05;;;0.90;;
16135;SDS011;8173;48.354;9.248;2022-08-24T11:21:42;3.53;;;1.00;;
16135;SDS011;8173;48.354;9.248;2022-08-24T11:24:23;0.90;;;0.90;;
16135;SDS011;8173;48.354;9.248;2022-08-24T11:26:54;1.00;;;0.90;;
16135;SDS011;8173;48.354;9.248;2022-08-24T11:29:25;2.35;;;1.05;;
16135;SDS011;8173;48.354;9.248;2022-08-24T11:31:57;1.10;;;1.00;;
16135;SDS011;8173;48.354;9.248;2022-08-24T11:34:32;2.35;;;0.90;;
16135;SDS011;8173;48.354;9.248;2022-08-24T11:37:04;0.90;;;0.80;;
16135;SDS011;8173;48.354;9.248;2022-08-24T11:39:39;1.00;;;0.90;;
16135;SDS011;8173;48.354;9.248;2022-08-24T11:42:10;0.82;;;0.82;;
16135;SDS011;8173;48.354;9.248;2022-08-24T11:44:44;0.88;;;0.88;;
16135;SDS011;8173;48.354;9.248;2022-08-24T11:47:20;1.08;;;0.93;;
16135;SDS011;8173;48.354;9.248;2022-08-24T11:50:06;1.13;;;0.98;;
16135;SDS011;8173;48.354;9.248;2022-08-24T11:52:46;2.45;;;0.80;;
16135;SDS011;8173;48.354;9.248;2022-08-24T11:55:23;0.80;;;0.70;;
16135;SDS011;8173;48.354;9.248;2022-08-24T11:57:57;1.02;;;0.82;;
16135;SDS011;8173;48.354;9.248;2022-08-24T12:00:35;0.70;;;0.70;;
16135;SDS011;8173;48.354;9.248;2022-08-24T12:03:15;1.00;;;0.85;;
16135;SDS011;8173;48.354;9.248;2022-08-24T12:05:52;0.75;;;0.75;;
16135;SDS011;8173;48.354;9.248;2022-08-24T12:08:26;0.95;;;0.80;;
16135;SDS011;8173;48.354;9.248;2022-08-24T12:11:00;1.38;;;0.90;;
16135;SDS011;8173;48.354;9.248;2022-08-24T12:13:38;0.70;;;0.70;;
16135;SDS011;8173;48.354;9.248;2022-08-24T12:16:14;1.00;;;0.90;;
16135;SDS011;8173;48.354;9.248;2022-08-24T12:18:52;0.77;;;0.70;;
16135;SDS011;8173;48.354;9.248;2022-08-24T12:21:23;0.80;;;0.80;;
16135;SDS011;8173;48.354;9.248;2022-08-24T12:23:53;0.82;;;0.82;;
16135;SDS011;8173;48.354;9.248;2022-08-24T12:26:25;1.95;;;0.82;;
16135;SDS011;8173;48.354;9.248;2022-08-24T12:28:58;0.80;;;0.80;;
16135;SDS011;8173;48.354;9.248;2022-08-24T12:31:33;0.70;;;0.70;;
16135;SDS011;8173;48.354;9.248;2022-08-24T12:34:07;1.77;;;0.85;;
16135;SDS011;8173;48.354;9.248;2022-08-24T12:36:40;0.63;;;0.63;;
16135;SDS011;8173;48.354;9.248;2022-08-24T12:39:18;0.75;;;0.75;;
16135;SDS011;8173;48.354;9.248;2022-08-24T12:41:51;0.70;;;0.70;;
16135;SDS011;8173;48.354;9.248;2022-08-24T12:44:24;1.17;;;0.93;;
16135;SDS011;8173;48.354;9.248;2022-08-24T12:46:56;0.77;;;0.77;;
16135;SDS011;8173;48.354;9.248;2022-08-24T12:49:27;0.80;;;0.80;;
16135;SDS011;8173;48.354;9.248;2022-08-24T12:52:02;0.90;;;0.90;;
16135;SDS011;8173;48.354;9.248;2022-08-24T12:54:47;0.80;;;0.80;;
16135;SDS011;8173;48.354;9.248;2022-08-24T12:57:27;1.02;;;0.80;;
16135;SDS011;8173;48.354;9.248;2022-08-24T13:00:05;1.48;;;1.00;;
16135;SDS011;8173;48.354;9.248;2022-08-24T13:02:38;0.80;;;0.80;;
16135;SDS011;8173;48.354;9.248;2022-08-24T13:05:11;1.00;;;0.80;;
16135;SDS011;8173;48.354;9.248;2022-08-24T13:07:41;1.00;;;0.90;;
16135;SDS011;8173;48.354;9.248;2022-08-24T13:10:12;0.80;;;0.80;;
16135;SDS011;8173;48.354;9.248;2022-08-24T13:21:37;1.00;;;0.90;;
16135;SDS011;8173;48.354;9.248;2022-08-24T13:33:33;1.30;;;0.85;;
16135;SDS011;8173;48.354;9.248;2022-08-24T13:39:16;1.65;;;0.80;;
16135;SDS011;8173;48.354;9.248;2022-08-24T13:41:53;0.80;;;0.80;;
16135;SDS011;8173;48.354;9.248;2022-08-24T13:44:40;0.80;;;0.80;;
16135;SDS011;8173;48.354;9.248;2022-08-24T13:47:47;0.80;;;0.80;;
16135;SDS011;8173;48.354;9.248;2022-08-24T13:50:29;0.80;;;0.80;;
16135;SDS011;8173;48.354;9.248;2022-08-24T13:56:17;0.80;;;0.80;;
16135;SDS011;8173;48.354;9.248;2022-08-24T13:58:54;1.00;;;0.90;;
16135;SDS011;8173;48.354;9.248;2022-08-24T14:01:33;0.80;;;0.80;;
16135;SDS011;8173;48.354;9.248;2022-08-24T14:04:06;0.90;;;0.90;;
16135;SDS011;8173;48.354;9.248;2022-08-24T14:06:46;0.95;;;0.80;;
16135;SDS011;8173;48.354;9.248;2022-08-24T14:09:21;1.00;;;0.90;;
16135;SDS011;8173;48.354;9.248;2022-08-24T14:12:07;4.55;;;0.82;;
16135;SDS011;8173;48.354;9.248;2022-08-24T14:14:49;0.70;;;0.70;;
16135;SDS011;8173;48.354;9.248;2022-08-24T14:17:29;0.80;;;0.80;;
16135;SDS011;8173;48.354;9.248;2022-08-24T14:20:29;1.05;;;0.90;;
16135;SDS011;8173;48.354;9.248;2022-08-24T14:23:21;0.70;;;0.70;;
16135;SDS011;8173;48.354;9.248;2022-08-24T14:29:26;0.80;;;0.80;;
16135;SDS011;8173;48.354;9.248;2022-08-24T14:35:21;0.80;;;0.80;;
16135;SDS011;8173;48.354;9.248;2022-08-24T14:38:02;0.85;;;0.82;;
16135;SDS011;8173;48.354;9.248;2022-08-24T14:40:39;0.80;;;0.80;;
16135;SDS011;8173;48.354;9.248;2022-08-24T14:43:23;0.90;;;0.85;;
16135;SDS011;8173;48.354;9.248;2022-08-24T14:45:58;1.27;;;0.80;;
16135;SDS011;8173;48.354;9.248;2022-08-24T14:48:38;1.05;;;0.80;;
16135;SDS011;8173;48.354;9.248;2022-08-24T14:51:18;0.90;;;0.90;;
16135;SDS011;8173;48.354;9.248;2022-08-24T14:54:10;1.08;;;0.90;;
16135;SDS011;8173;48.354;9.248;2022-08-24T14:56:48;0.77;;;0.77;;
16135;SDS011;8173;48.354;9.248;2022-08-24T14:59:26;1.00;;;0.90;;
16135;SDS011;8173;48.354;9.248;2022-08-24T15:02:13;0.88;;;0.80;;
16135;SDS011;8173;48.354;9.248;2022-08-24T15:05:04;0.90;;;0.90;;
16135;SDS011;8173;48.354;9.248;2022-08-24T15:07:37;1.13;;;0.80;;
16135;SDS011;8173;48.354;9.248;2022-08-24T15:10:09;1.00;;;0.80;;
16135;SDS011;8173;48.354;9.248;2022-08-24T15:12:40;1.05;;;0.90;;
16135;SDS011;8173;48.354;9.248;2022-08-24T15:15:12;0.80;;;0.80;;
16135;SDS011;8173;48.354;9.248;2022-08-24T15:17:50;0.80;;;0.80;;
16135;SDS011;8173;48.354;9.248;2022-08-24T15:20:30;1.23;;;0.90;;
16135;SDS011;8173;48.354;9.248;2022-08-24T15:23:19;0.80;;;0.80;;
16135;SDS011;8173;48.354;9.248;2022-08-24T15:25:53;0.98;;;0.80;;
16135;SDS011;8173;48.354;9.248;2022-08-24T15:28:24;1.13;;;1.00;;
16135;SDS011;8173;48.354;9.248;2022-08-24T15:30:54;0.90;;;0.85;;
16135;SDS011;8173;48.354;9.248;2022-08-24T15:33:24;0.80;;;0.80;;
16135;SDS011;8173;48.354;9.248;2022-08-24T15:36:03;1.00;;;0.90;;
16135;SDS011;8173;48.354;9.248;2022-08-24T15:38:33;0.80;;;0.80;;
16135;SDS011;8173;48.354;9.248;2022-08-24T15:41:02;1.67;;;0.90;;
16135;SDS011;8173;48.354;9.248;2022-08-24T15:43:32;1.15;;;0.90;;
16135;SDS011;8173;48.354;9.248;2022-08-24T15:46:01;1.05;;;0.90;;
16135;SDS011;8173;48.354;9.248;2022-08-24T15:48:30;1.00;;;0.90;;
16135;SDS011;8173;48.354;9.248;2022-08-24T15:50:57;0.80;;;0.80;;
16135;SDS011;8173;48.354;9.248;2022-08-24T15:53:32;1.10;;;1.00;;
16135;SDS011;8173;48.354;9.248;2022-08-24T15:56:22;1.02;;;1.00;;
16135;SDS011;8173;48.354;9.248;2022-08-24T15:58:53;1.73;;;1.10;;
16135;SDS011;8173;48.354;9.248;2022-08-24T16:01:30;1.15;;;0.90;;
16135;SDS011;8173;48.354;9.248;2022-08-24T16:04:35;1.20;;;1.10;;
16135;SDS011;8173;48.354;9.248;2022-08-24T16:07:06;1.13;;;1.02;;
16135;SDS011;8173;48.354;9.248;2022-08-24T16:09:38;1.10;;;1.00;;
16135;SDS011;8173;48.354;9.248;2022-08-24T16:12:08;1.45;;;1.00;;
16135;SDS011;8173;48.354;9.248;2022-08-24T16:14:37;1.15;;;1.00;;
16135;SDS011;8173;48.354;9.248;2022-08-24T16:19:56;0.90;;;0.90;;
16135;SDS011;8173;48.354;9.248;2022-08-24T16:22:29;1.23;;;1.15;;
16135;SDS011;8173;48.354;9.248;2022-08-24T16:25:09;1.10;;;1.00;;
16135;SDS011;8173;48.354;9.248;2022-08-24T16:27:55;1.13;;;1.00;;
16135;SDS011;8173;48.354;9.248;2022-08-24T16:30:25;1.17;;;1.08;;
16135;SDS011;8173;48.354;9.248;2022-08-24T16:33:00;1.02;;;1.00;;
16135;SDS011;8173;48.354;9.248;2022-08-24T16:35:28;1.15;;;1.00;;
16135;SDS011;8173;48.354;9.248;2022-08-24T16:37:56;1.08;;;1.00;;